createdAt,value
2023-05-19T00:01:44.302Z,9.45
2023-05-19T00:04:17.788Z,9.43
2023-05-19T00:06:51.847Z,9.05
2023-05-19T00:09:23.785Z,9.25
2023-05-19T00:11:57.312Z,10.30
2023-05-19T00:14:29.588Z,9.52
2023-05-19T00:17:02.503Z,9.00
2023-05-19T00:19:32.894Z,8.85
2023-05-19T00:22:05.888Z,9.20
2023-05-19T00:24:35.617Z,9.93
2023-05-19T00:27:10.391Z,9.80
2023-05-19T00:29:39.701Z,9.15
2023-05-19T00:32:12.156Z,8.98
2023-05-19T00:34:46.299Z,9.23
2023-05-19T00:37:23.822Z,9.02
2023-05-19T00:39:58.640Z,9.88
2023-05-19T00:42:30.419Z,8.70
2023-05-19T00:45:02.214Z,9.63
2023-05-19T00:47:34.166Z,8.45
2023-05-19T00:50:09.290Z,8.40
2023-05-19T00:52:42.081Z,9.52
2023-05-19T00:55:14.960Z,9.27
2023-05-19T00:57:44.776Z,8.90
2023-05-19T01:00:14.853Z,9.55
2023-05-19T01:02:44.483Z,9.68
2023-05-19T01:05:16.847Z,10.40
2023-05-19T01:07:47.599Z,9.15
2023-05-19T01:10:26.812Z,9.52
2023-05-19T01:12:56.923Z,10.45
2023-05-19T01:15:33.773Z,9.90
2023-05-19T01:20:55.629Z,8.75
2023-05-19T01:23:58.702Z,9.13
2023-05-19T01:27:11.436Z,10.45
2023-05-19T01:30:18.318Z,8.93
2023-05-19T01:35:27.176Z,9.38
2023-05-19T01:38:00.670Z,9.55
2023-05-19T01:40:34.252Z,8.93
2023-05-19T01:43:09.647Z,9.07
2023-05-19T01:45:45.398Z,9.85
2023-05-19T01:48:16.794Z,9.00
2023-05-19T01:50:52.796Z,10.70
2023-05-19T01:53:25.040Z,9.75
2023-05-19T01:55:56.768Z,9.73
2023-05-19T01:58:49.307Z,9.35
2023-05-19T02:01:54.817Z,9.38
2023-05-19T02:04:41.933Z,10.13
2023-05-19T02:08:00.653Z,10.02
2023-05-19T02:10:41.524Z,10.13
2023-05-19T02:13:14.722Z,10.30
2023-05-19T02:15:46.315Z,11.20
2023-05-19T02:18:22.285Z,11.43
2023-05-19T02:20:57.133Z,10.73
2023-05-19T02:23:35.128Z,9.70
2023-05-19T02:26:05.331Z,9.77
2023-05-19T02:28:43.655Z,9.35
2023-05-19T02:31:37.247Z,9.30
2023-05-19T02:34:09.297Z,9.68
2023-05-19T02:36:50.395Z,9.93
2023-05-19T02:39:21.968Z,10.10
2023-05-19T02:41:56.448Z,9.95
2023-05-19T02:44:26.902Z,9.40
2023-05-19T02:47:04.051Z,9.63
2023-05-19T02:49:36.485Z,8.77
2023-05-19T02:57:13.270Z,9.18
2023-05-19T02:59:48.170Z,9.65
2023-05-19T03:02:20.244Z,9.77
2023-05-19T03:04:55.626Z,9.20
2023-05-19T03:07:30.122Z,9.85
2023-05-19T03:10:04.632Z,9.70
2023-05-19T03:12:41.678Z,9.23
2023-05-19T03:15:13.610Z,9.77
2023-05-19T03:17:43.581Z,10.15
2023-05-19T03:20:19.219Z,9.68
2023-05-19T03:25:20.327Z,9.00
2023-05-19T03:27:54.637Z,9.27
2023-05-19T03:30:25.042Z,8.63
2023-05-19T03:33:11.144Z,10.20
2023-05-19T03:35:47.155Z,10.18
2023-05-19T03:38:20.105Z,10.07
2023-05-19T03:41:03.628Z,10.63
2023-05-19T03:43:33.785Z,10.00
2023-05-19T03:46:08.593Z,9.45
2023-05-19T03:48:58.502Z,10.15
2023-05-19T03:51:51.151Z,9.93
2023-05-19T03:54:28.706Z,10.13
2023-05-19T03:57:03.012Z,9.48
2023-05-19T03:59:38.367Z,8.65
2023-05-19T04:02:13.126Z,8.85
2023-05-19T04:04:48.043Z,9.48
2023-05-19T04:07:19.915Z,9.60
2023-05-19T04:09:53.536Z,8.98
2023-05-19T04:12:25.571Z,9.38
2023-05-19T04:15:00.603Z,8.50
2023-05-19T04:17:30.601Z,9.02
2023-05-19T04:19:59.965Z,8.82
2023-05-19T04:22:32.101Z,8.32
2023-05-19T04:25:05.881Z,8.48
2023-05-19T04:27:39.744Z,8.35
2023-05-19T04:30:18.725Z,8.20
2023-05-19T04:32:56.882Z,8.68
2023-05-19T04:35:33.432Z,8.23
2023-05-19T04:38:10.637Z,8.55
2023-05-19T04:40:45.736Z,8.90
2023-05-19T04:43:17.378Z,8.25
2023-05-19T04:45:52.002Z,8.18
2023-05-19T04:48:26.552Z,8.02
2023-05-19T04:51:02.011Z,7.70
2023-05-19T04:53:31.905Z,7.22
2023-05-19T04:56:04.098Z,8.02
2023-05-19T04:58:41.829Z,8.65
2023-05-19T05:01:17.054Z,7.88
2023-05-19T05:03:49.792Z,8.27
2023-05-19T05:06:20.796Z,7.50
2023-05-19T05:08:55.613Z,8.27
2023-05-19T05:11:28.252Z,7.00
2023-05-19T05:14:03.778Z,7.82
2023-05-19T05:16:37.643Z,7.95
2023-05-19T05:19:16.488Z,7.63
2023-05-19T05:21:54.578Z,7.72
2023-05-19T05:24:24.748Z,7.28
2023-05-19T05:27:06.370Z,8.10
2023-05-19T05:29:38.671Z,7.50
2023-05-19T05:32:13.452Z,7.35
2023-05-19T05:34:46.640Z,7.40
2023-05-19T05:37:16.703Z,7.75
2023-05-19T05:39:51.365Z,6.90
2023-05-19T05:42:23.490Z,7.05
2023-05-19T05:47:28.622Z,6.60
2023-05-19T05:50:01.939Z,6.75
2023-05-19T05:52:38.347Z,7.63
2023-05-19T05:55:12.025Z,7.63
2023-05-19T05:57:44.773Z,7.03
2023-05-19T06:00:17.741Z,7.90
2023-05-19T06:02:53.602Z,7.32
2023-05-19T06:05:25.840Z,7.18
2023-05-19T06:08:00.017Z,7.10
2023-05-19T06:10:34.028Z,7.65
2023-05-19T06:13:07.446Z,7.03
2023-05-19T06:15:43.194Z,7.82
2023-05-19T06:18:38.859Z,6.60
2023-05-19T06:21:13.942Z,7.28
2023-05-19T06:23:50.003Z,8.07
2023-05-19T06:26:27.145Z,7.82
2023-05-19T06:29:01.047Z,7.50
2023-05-19T06:31:30.688Z,8.13
2023-05-19T06:34:10.840Z,7.47
2023-05-19T06:36:45.874Z,7.55
2023-05-19T06:39:23.972Z,6.93
2023-05-19T06:41:56.618Z,7.30
2023-05-19T06:44:50.084Z,7.00
2023-05-19T06:47:19.692Z,6.97
2023-05-19T06:49:57.473Z,6.82
2023-05-19T06:52:30.166Z,7.45
2023-05-19T06:55:06.512Z,8.25
2023-05-19T06:57:40.891Z,7.35
2023-05-19T07:00:32.031Z,7.45
2023-05-19T07:03:08.610Z,7.03
2023-05-19T07:05:41.038Z,7.20
2023-05-19T07:08:13.705Z,6.93
2023-05-19T07:10:47.438Z,6.70
2023-05-19T07:13:21.911Z,6.80
2023-05-19T07:15:56.151Z,6.82
2023-05-19T07:18:32.528Z,6.30
2023-05-19T07:21:07.875Z,6.22
2023-05-19T07:23:45.148Z,7.15
2023-05-19T07:26:19.336Z,5.97
2023-05-19T07:28:49.637Z,6.50
2023-05-19T07:31:24.681Z,6.03
2023-05-19T07:33:54.873Z,6.03
2023-05-19T07:36:25.182Z,6.15
2023-05-19T07:39:02.379Z,6.60
2023-05-19T07:41:34.436Z,6.72
2023-05-19T07:44:10.927Z,5.20
2023-05-19T07:46:43.226Z,5.70
2023-05-19T07:49:13.684Z,5.35
2023-05-19T07:51:45.827Z,5.50
2023-05-19T07:54:16.866Z,4.82
2023-05-19T07:56:49.749Z,4.85
2023-05-19T07:59:19.432Z,5.32
2023-05-19T08:01:55.746Z,5.00
2023-05-19T08:04:29.586Z,5.22
2023-05-19T08:07:21.970Z,5.00
2023-05-19T08:09:57.149Z,5.30
2023-05-19T08:12:27.853Z,5.38
2023-05-19T08:15:01.451Z,5.10
2023-05-19T08:17:32.567Z,4.95
2023-05-19T08:20:09.352Z,5.35
2023-05-19T08:22:48.294Z,5.00
2023-05-19T08:25:20.431Z,4.65
2023-05-19T08:27:59.782Z,4.85
2023-05-19T08:30:33.501Z,4.53
2023-05-19T08:35:59.968Z,5.00
2023-05-19T08:38:32.957Z,5.25
2023-05-19T08:41:06.386Z,4.78
2023-05-19T08:43:44.308Z,4.55
2023-05-19T08:46:17.352Z,4.65
2023-05-19T08:48:59.093Z,4.28
2023-05-19T08:51:34.334Z,5.03
2023-05-19T08:54:16.166Z,4.50
2023-05-19T08:56:53.704Z,4.55
2023-05-19T08:59:25.336Z,4.00
2023-05-19T09:01:57.600Z,5.45
2023-05-19T09:08:13.217Z,5.15
2023-05-19T09:10:52.634Z,4.72
2023-05-19T09:13:45.686Z,4.55
2023-05-19T09:16:38.421Z,4.30
2023-05-19T09:19:31.393Z,4.28
2023-05-19T09:22:06.786Z,4.38
2023-05-19T09:24:42.337Z,4.47
2023-05-19T09:27:24.111Z,4.65
2023-05-19T09:29:55.728Z,4.40
2023-05-19T09:32:28.907Z,4.10
2023-05-19T09:35:00.708Z,4.35
2023-05-19T09:37:32.765Z,4.25
2023-05-19T09:40:02.615Z,3.90
2023-05-19T09:42:41.090Z,4.47
2023-05-19T09:45:15.472Z,4.43
2023-05-19T09:47:45.019Z,4.50
2023-05-19T09:50:15.645Z,4.78
2023-05-19T09:52:48.747Z,4.57
2023-05-19T09:55:24.320Z,4.13
2023-05-19T09:58:00.648Z,4.25
2023-05-19T10:00:35.231Z,4.18
2023-05-19T10:03:15.469Z,4.53
2023-05-19T10:05:46.101Z,4.45
2023-05-19T10:08:18.320Z,4.28
2023-05-19T10:11:27.967Z,4.55
2023-05-19T10:17:47.696Z,4.75
2023-05-19T10:20:55.861Z,4.75
2023-05-19T10:24:21.034Z,4.75
2023-05-19T10:27:22.463Z,4.65
2023-05-19T10:29:56.618Z,4.75
2023-05-19T10:32:32.622Z,4.93
2023-05-19T10:35:11.467Z,4.28
2023-05-19T10:37:53.245Z,4.80
2023-05-19T10:40:31.187Z,5.15
2023-05-19T10:43:51.679Z,4.65
2023-05-19T10:46:36.248Z,4.13
2023-05-19T10:49:09.578Z,4.38
2023-05-19T10:52:00.406Z,4.63
2023-05-19T10:54:47.453Z,4.25
2023-05-19T10:57:20.686Z,4.32
2023-05-19T10:59:54.778Z,4.25
2023-05-19T11:02:45.591Z,4.18
2023-05-19T11:05:28.753Z,4.40
2023-05-19T11:08:09.814Z,4.05
2023-05-19T11:10:44.198Z,4.07
2023-05-19T11:13:23.210Z,4.70
2023-05-19T11:15:57.104Z,4.57
2023-05-19T11:19:21.834Z,4.78
2023-05-19T11:21:55.960Z,5.18
2023-05-19T11:24:36.570Z,5.38
2023-05-19T11:27:33.942Z,5.13
2023-05-19T11:30:18.785Z,5.00
2023-05-19T11:32:54.969Z,4.95
2023-05-19T11:35:36.031Z,4.55
2023-05-19T11:38:14.245Z,4.40
2023-05-19T11:40:51.275Z,4.72
2023-05-19T11:43:23.685Z,4.80
2023-05-19T11:45:59.244Z,4.13
2023-05-19T11:48:30.490Z,4.70
2023-05-19T11:51:04.412Z,5.03
2023-05-19T11:53:39.334Z,4.90
2023-05-19T11:56:12.856Z,5.10
2023-05-19T11:59:07.763Z,4.85
2023-05-19T12:01:37.180Z,4.65
2023-05-19T12:04:15.894Z,4.97
2023-05-19T12:06:51.222Z,4.50
2023-05-19T12:09:26.429Z,4.55
2023-05-19T12:11:59.105Z,5.10
2023-05-19T12:14:30.705Z,4.97
2023-05-19T12:16:59.900Z,4.47
2023-05-19T12:19:29.534Z,5.18
2023-05-19T12:21:58.566Z,5.18
2023-05-19T12:24:34.814Z,4.80
2023-05-19T12:27:18.083Z,4.68
2023-05-19T12:29:56.621Z,5.07
2023-05-19T12:32:35.161Z,5.60
2023-05-19T12:37:39.262Z,5.35
2023-05-19T12:40:17.110Z,5.50
2023-05-19T12:42:53.757Z,5.60
2023-05-19T12:45:29.348Z,5.22
2023-05-19T12:48:07.433Z,5.18
2023-05-19T12:50:40.382Z,4.90
2023-05-19T12:53:13.545Z,5.28
2023-05-19T12:55:44.264Z,5.63
2023-05-19T12:58:16.786Z,6.28
2023-05-19T13:01:05.753Z,5.53
2023-05-19T13:03:43.861Z,6.35
2023-05-19T13:06:15.962Z,6.25
2023-05-19T13:08:48.544Z,6.00
2023-05-19T13:11:27.063Z,5.95
2023-05-19T13:14:03.238Z,5.88
2023-05-19T13:16:35.401Z,6.47
2023-05-19T13:21:52.860Z,6.00
2023-05-19T13:24:31.884Z,6.13
2023-05-19T13:27:01.252Z,5.97
2023-05-19T13:29:33.123Z,5.93
2023-05-19T13:34:40.324Z,6.72
2023-05-19T13:37:10.224Z,6.25
2023-05-19T13:39:39.352Z,6.20
2023-05-19T13:42:17.881Z,6.15
2023-05-19T13:44:47.533Z,6.78
2023-05-19T13:47:17.117Z,6.38
2023-05-19T13:49:47.257Z,6.35
2023-05-19T13:52:18.993Z,6.97
2023-05-19T13:54:55.269Z,6.18
2023-05-19T13:57:28.739Z,6.63
2023-05-19T14:00:05.058Z,6.05
2023-05-19T14:02:43.471Z,6.00
2023-05-19T14:05:15.413Z,6.10
2023-05-19T14:07:48.754Z,6.20
2023-05-19T14:10:23.762Z,5.65
2023-05-19T14:15:38.486Z,5.63
2023-05-19T14:18:10.307Z,5.55
2023-05-19T14:20:42.710Z,5.28
2023-05-19T14:23:16.170Z,5.75
2023-05-19T14:25:49.543Z,5.75
2023-05-19T14:28:21.682Z,5.82
2023-05-19T14:30:52.235Z,5.95
2023-05-19T14:33:23.377Z,6.72
2023-05-19T14:35:56.531Z,6.28
2023-05-19T14:38:27.727Z,6.13
2023-05-19T14:40:59.322Z,6.78
2023-05-19T14:43:29.125Z,6.10
2023-05-19T14:45:59.392Z,6.55
2023-05-19T14:48:33.863Z,5.65
2023-05-19T14:51:05.448Z,5.50
2023-05-19T14:53:40.243Z,5.53
2023-05-19T14:56:18.135Z,5.53
2023-05-19T14:58:50.336Z,5.80
2023-05-19T15:01:24.119Z,5.75
2023-05-19T15:03:56.268Z,5.55
2023-05-19T15:06:29.006Z,6.13
2023-05-19T15:09:01.079Z,5.80
2023-05-19T15:11:35.950Z,5.75
2023-05-19T15:14:10.840Z,5.97
2023-05-19T15:16:45.383Z,5.28
2023-05-19T15:19:17.826Z,5.40
2023-05-19T15:21:51.129Z,5.82
2023-05-19T15:24:23.496Z,5.07
2023-05-19T15:26:52.970Z,5.72
2023-05-19T15:29:27.377Z,5.03
2023-05-19T15:31:57.636Z,5.35
2023-05-19T15:34:31.556Z,4.30
2023-05-19T15:37:08.448Z,5.07
2023-05-19T15:39:40.957Z,5.10
2023-05-19T15:42:12.305Z,4.90
2023-05-19T15:44:51.649Z,5.00
2023-05-19T15:47:27.613Z,4.50
2023-05-19T15:49:56.947Z,4.65
2023-05-19T15:52:29.711Z,4.50
2023-05-19T15:55:03.559Z,5.28
2023-05-19T15:57:33.749Z,5.03
2023-05-19T16:00:02.943Z,4.68
2023-05-19T16:02:37.353Z,5.10
2023-05-19T16:05:12.159Z,5.00
2023-05-19T16:07:44.490Z,4.63
2023-05-19T16:10:16.866Z,4.88
2023-05-19T16:12:48.719Z,4.50
2023-05-19T16:15:21.372Z,4.45
2023-05-19T16:17:52.943Z,4.57
2023-05-19T16:20:29.764Z,4.53
2023-05-19T16:23:03.916Z,5.35
2023-05-19T16:25:38.378Z,5.07
2023-05-19T16:30:41.392Z,5.18
2023-05-19T16:33:16.789Z,4.68
2023-05-19T16:35:46.333Z,5.13
2023-05-19T16:38:22.731Z,4.70
2023-05-19T16:40:56.582Z,5.45
2023-05-19T16:43:28.367Z,5.40
2023-05-19T16:45:58.862Z,5.07
2023-05-19T16:48:36.378Z,4.70
2023-05-19T16:51:05.928Z,5.40
2023-05-19T16:53:40.304Z,5.40
2023-05-19T16:56:09.593Z,5.70
2023-05-19T16:58:39.333Z,5.78
2023-05-19T17:01:10.403Z,5.60
2023-05-19T17:03:43.404Z,5.63
2023-05-19T17:06:15.282Z,5.47
2023-05-19T17:08:45.346Z,6.32
2023-05-19T17:11:19.853Z,5.30
2023-05-19T17:13:57.073Z,5.57
2023-05-19T17:16:39.943Z,5.93
2023-05-19T17:19:12.540Z,5.80
2023-05-19T17:21:47.197Z,5.20
2023-05-19T17:24:22.934Z,6.25
2023-05-19T17:26:54.691Z,6.03
2023-05-19T17:29:24.050Z,5.45
2023-05-19T17:31:53.403Z,5.85
2023-05-19T17:34:28.905Z,5.63
2023-05-19T17:39:33.934Z,5.45
2023-05-19T17:42:06.600Z,5.70
2023-05-19T17:44:38.638Z,5.93
2023-05-19T17:47:12.874Z,5.40
2023-05-19T17:49:42.104Z,5.75
2023-05-19T17:52:14.657Z,5.55
2023-05-19T17:54:46.636Z,5.43
2023-05-19T17:57:20.673Z,5.10
2023-05-19T17:59:55.293Z,6.53
2023-05-19T18:02:28.417Z,5.55
2023-05-19T18:05:06.356Z,5.60
2023-05-19T18:07:40.374Z,6.30
2023-05-19T18:10:19.278Z,5.20
2023-05-19T18:12:49.372Z,5.28
2023-05-19T18:15:19.346Z,5.97
2023-05-19T18:17:55.608Z,5.18
2023-05-19T18:20:26.339Z,5.25
2023-05-19T18:22:55.820Z,5.88
2023-05-19T18:25:30.815Z,5.80
2023-05-19T18:28:02.738Z,5.88
2023-05-19T18:30:33.522Z,5.68
2023-05-19T18:33:07.996Z,4.80
2023-05-19T18:35:38.040Z,5.88
2023-05-19T18:38:07.504Z,6.00
2023-05-19T18:40:37.130Z,6.40
2023-05-19T18:43:14.241Z,6.32
2023-05-19T18:45:50.845Z,5.63
2023-05-19T18:48:23.521Z,5.90
2023-05-19T18:50:58.467Z,6.05
2023-05-19T18:53:31.829Z,5.90
2023-05-19T18:56:06.752Z,7.15
2023-05-19T18:58:36.772Z,5.97
2023-05-19T19:01:09.239Z,5.75
2023-05-19T19:03:42.495Z,5.80
2023-05-19T19:06:24.282Z,5.63
2023-05-19T19:09:05.073Z,6.90
2023-05-19T19:11:42.003Z,7.30
2023-05-19T19:14:16.003Z,5.88
2023-05-19T19:16:47.391Z,6.28
2023-05-19T19:19:19.395Z,5.95
2023-05-19T19:21:48.758Z,6.20
2023-05-19T19:24:21.339Z,8.10
2023-05-19T19:29:22.562Z,5.85
2023-05-19T19:31:55.274Z,6.13
2023-05-19T19:34:34.798Z,6.15
2023-05-19T19:37:10.154Z,6.07
2023-05-19T19:39:41.794Z,5.72
2023-05-19T19:42:14.386Z,6.05
2023-05-19T19:47:14.754Z,5.55
2023-05-19T19:49:52.249Z,6.05
2023-05-19T19:52:24.525Z,5.85
2023-05-19T19:54:54.211Z,5.88
2023-05-19T19:57:30.663Z,6.00
2023-05-19T20:00:08.806Z,5.95
2023-05-19T20:02:51.641Z,5.90
2023-05-19T20:05:29.865Z,6.03
2023-05-19T20:08:05.376Z,6.53
2023-05-19T20:13:06.337Z,5.25
2023-05-19T20:15:47.554Z,5.35
2023-05-19T20:18:19.343Z,5.63
2023-05-19T20:20:51.492Z,4.85
2023-05-19T20:23:27.459Z,5.38
2023-05-19T20:26:13.160Z,5.55
2023-05-19T20:28:45.682Z,6.00
2023-05-19T20:31:15.088Z,5.80
2023-05-19T20:36:19.184Z,5.82
2023-05-19T20:38:54.308Z,5.72
2023-05-19T20:41:24.421Z,5.72
2023-05-19T20:43:55.718Z,5.75
2023-05-19T20:46:30.755Z,5.93
2023-05-19T20:49:06.968Z,5.55
2023-05-19T20:51:40.735Z,5.20
2023-05-19T20:54:17.357Z,5.38
2023-05-19T20:56:49.016Z,5.50
2023-05-19T20:59:23.609Z,6.30
2023-05-19T21:02:00.648Z,6.07
2023-05-19T21:04:34.099Z,5.63
2023-05-19T21:07:07.004Z,5.75
2023-05-19T21:09:43.372Z,5.38
2023-05-19T21:12:15.583Z,6.30
2023-05-19T21:14:45.798Z,5.72
2023-05-19T21:17:22.722Z,5.50
2023-05-19T21:19:59.936Z,5.10
2023-05-19T21:22:31.680Z,5.70
2023-05-19T21:25:03.238Z,6.35
2023-05-19T21:27:37.232Z,5.55
2023-05-19T21:30:11.066Z,5.63
2023-05-19T21:32:42.686Z,5.50
2023-05-19T21:35:12.170Z,5.88
2023-05-19T21:37:43.556Z,5.45
2023-05-19T21:40:13.239Z,6.18
2023-05-19T21:42:47.220Z,5.65
2023-05-19T21:45:18.711Z,6.13
2023-05-19T21:47:53.960Z,6.22
2023-05-19T21:50:31.394Z,6.38
2023-05-19T21:53:06.185Z,5.53
2023-05-19T21:55:39.670Z,4.97
2023-05-19T21:58:14.367Z,5.65
2023-05-19T22:00:57.422Z,6.00
2023-05-19T22:03:38.916Z,5.57
2023-05-19T22:06:13.068Z,5.80
2023-05-19T22:08:45.632Z,5.50
2023-05-19T22:11:26.612Z,5.68
2023-05-19T22:14:06.688Z,6.15
2023-05-19T22:16:39.654Z,5.57
2023-05-19T22:19:09.068Z,5.43
2023-05-19T22:22:01.811Z,5.53
2023-05-19T22:24:40.645Z,5.65
2023-05-19T22:27:15.339Z,5.93
2023-05-19T22:29:50.342Z,5.95
2023-05-19T22:32:21.740Z,6.10
2023-05-19T22:34:57.611Z,5.90
2023-05-19T22:37:35.379Z,5.85
2023-05-19T22:40:11.669Z,6.20
2023-05-19T22:42:46.439Z,6.25
2023-05-19T22:45:22.172Z,6.07
2023-05-19T22:47:57.538Z,5.55
2023-05-19T22:50:29.097Z,6.10
2023-05-19T22:53:06.549Z,5.40
2023-05-19T22:55:42.087Z,5.43
2023-05-19T22:58:46.511Z,6.70
2023-05-19T23:01:15.659Z,5.78
2023-05-19T23:03:52.750Z,6.30
2023-05-19T23:06:24.354Z,5.72
2023-05-19T23:09:04.060Z,6.05
2023-05-19T23:11:36.519Z,6.85
2023-05-19T23:14:09.971Z,6.30
2023-05-19T23:16:43.989Z,6.03
2023-05-19T23:19:18.020Z,6.75
2023-05-19T23:21:49.829Z,6.55
2023-05-19T23:24:21.750Z,6.53
2023-05-19T23:26:55.010Z,6.25
2023-05-19T23:29:24.020Z,6.53
2023-05-19T23:31:53.260Z,7.22
2023-05-19T23:34:22.814Z,6.55
2023-05-19T23:36:54.469Z,6.43
2023-05-19T23:39:29.085Z,6.82
2023-05-19T23:42:00.364Z,6.63
2023-05-19T23:44:32.014Z,6.32
2023-05-19T23:47:04.561Z,6.90
2023-05-19T23:49:41.498Z,6.18
2023-05-19T23:52:14.389Z,7.03
2023-05-19T23:54:49.854Z,6.75
2023-05-19T23:57:25.812Z,6.72
2023-05-19T23:59:57.274Z,6.03
